Time;durP1;ratioP1;P1;durP2;ratioP2;P2;SDS_P1;SDS_P2;PMS_P1;PMS_P2;Temp;Humidity;BMP_temperature;BMP_pressure;BME280_temperature;BME280_humidity;BME280_pressure;Samples;Min_cycle;Max_cycle;Signal;HPM_P1;HPM_P2
2022/02/27 00:02:08;;;;;;;;;;;;;;;;;;;;;
2022/02/27 00:04:58;;;;;;;17.63;7.57;;;;;;;2.53;81.02;102052.63;6139361;23;20045;-94
2022/02/27 00:07:50;;;;;;;20.70;7.38;;;;;;;2.27;82.13;102023.56;6154913;23;20018;-93
2022/02/27 00:10:20;;;;;;;15.73;7.45;;;;;;;2.35;82.24;102047.19;6144749;23;20017;-93
2022/02/27 00:13:01;;;;;;;21.45;7.63;;;;;;;2.51;81.99;102090.09;6153996;23;20096;-93
2022/02/27 00:15:29;;;;;;;17.92;7.00;;;;;;;2.52;82.40;102091.88;6154282;23;20037;-91
2022/02/27 00:18:03;;;;;;;18.25;7.03;;;;;;;2.29;82.16;102053.22;6153065;23;20051;-93
2022/02/27 00:20:33;;;;;;;17.08;6.93;;;;;;;2.21;81.82;102033.91;6152150;23;20021;-92
2022/02/27 00:23:17;;;;;;;14.90;6.40;;;;;;;2.25;81.95;102046.16;6215700;23;20016;-93
2022/02/27 00:25:59;;;;;;;15.10;6.60;;;;;;;2.13;81.93;102035.56;6244971;22;20332;-93
2022/02/27 00:28:34;;;;;;;18.63;6.78;;;;;;;2.18;81.84;102054.81;6247025;22;20016;-93
2022/02/27 00:31:11;;;;;;;12.77;6.72;;;;;;;2.36;82.85;102091.63;6244364;23;20050;-94
2022/02/27 00:34:09;;;;;;;16.88;6.82;;;;;;;2.09;82.72;102057.28;6247137;22;20020;-92
2022/02/27 00:36:50;;;;;;;14.30;6.82;;;;;;;1.90;82.56;102029.13;6241056;22;20347;-93
2022/02/27 00:39:24;;;;;;;18.90;6.32;;;;;;;1.83;82.96;102019.47;6256560;22;20084;-92
2022/02/27 00:42:14;;;;;;;;;;;;;;;;;;;;;
2022/02/27 00:45:16;;;;;;;15.32;7.30;;;;;;;2.18;83.26;102082.69;6250122;22;20039;-93
2022/02/27 00:47:45;;;;;;;17.08;7.55;;;;;;;1.75;83.07;102014.97;6245703;22;20013;-91
2022/02/27 00:50:27;;;;;;;14.82;7.03;;;;;;;1.90;83.44;102036.97;6256359;22;20027;-93
2022/02/27 00:52:59;;;;;;;20.80;8.30;;;;;;;1.83;83.85;102040.34;6251333;22;20020;-94
2022/02/27 00:55:29;;;;;;;19.70;7.93;;;;;;;1.63;84.19;102006.97;6251795;22;20026;-94
2022/02/27 00:57:59;;;;;;;18.33;8.25;;;;;;;1.56;83.94;102009.47;6252822;22;20017;-93
2022/02/27 01:00:49;;;;;;;17.70;7.95;;;;;;;1.69;84.32;102038.41;6247490;22;20443;-92
2022/02/27 01:03:40;;;;;;;17.10;7.57;;;;;;;1.67;84.40;102031.41;6245218;22;20066;-96
2022/02/27 01:06:16;;;;;;;19.20;7.53;;;;;;;1.43;84.87;102008.38;6247907;23;20020;-93
2022/02/27 01:08:59;;;;;;;;;;;;;;;;;;;;;
2022/02/27 01:11:42;;;;;;;;;;;;;;;;;;;;;
2022/02/27 01:14:16;;;;;;;15.07;6.95;;;;;;;1.34;85.09;102006.53;6276522;22;20035;-93
2022/02/27 01:17:01;;;;;;;19.08;6.78;;;;;;;1.64;85.54;102078.34;6253537;22;20455;-95
2022/02/27 01:19:35;;;;;;;17.80;6.78;;;;;;;1.33;86.01;102029.97;6277326;22;20019;-94
2022/02/27 01:22:21;;;;;;;17.30;6.65;;;;;;;1.49;86.10;102057.22;6250881;22;20388;-94
2022/02/27 01:24:52;;;;;;;14.50;6.40;;;;;;;1.29;85.81;102041.22;6277775;22;20016;-94
2022/02/27 01:27:22;;;;;;;16.50;6.03;;;;;;;1.20;86.27;102030.63;6277990;22;20024;-94
2022/02/27 01:30:20;;;;;;;14.90;6.75;;;;;;;0.95;86.72;101995.38;6279275;22;20046;-93
2022/02/27 01:32:49;;;;;;;16.85;6.28;;;;;;;1.17;87.09;102041.00;6277954;22;20680;-93
2022/02/27 01:35:26;;;;;;;18.08;6.68;;;;;;;1.05;86.99;102026.91;6279652;22;20015;-93
2022/02/27 01:37:55;;;;;;;14.57;6.25;;;;;;;1.11;86.88;102044.38;6278670;22;20020;-93
2022/02/27 01:40:37;;;;;;;;;;;;;;;;;;;;;
2022/02/27 01:43:15;;;;;;;14.30;5.90;;;;;;;0.85;87.85;102012.63;6281381;22;20019;-94
2022/02/27 01:45:43;;;;;;;14.60;6.38;;;;;;;0.90;88.19;102024.03;6257185;22;20089;-93
2022/02/27 01:48:12;;;;;;;17.40;6.57;;;;;;;0.85;87.85;102016.94;6251479;22;20050;-95
2022/02/27 01:50:53;;;;;;;15.57;7.10;;;;;;;0.94;87.54;102030.19;6278865;22;20027;-95
2022/02/27 01:53:33;;;;;;;16.13;6.35;;;;;;;0.77;88.14;102001.19;6276251;22;20027;-94
2022/02/27 01:56:25;;;;;;;16.70;7.22;;;;;;;0.68;87.75;101999.25;6279599;22;20026;-94
2022/02/27 02:00:03;;;;;;;;;;;;;;;;;;;;;
2022/02/27 02:07:18;;;;;;;16.38;7.40;;;;;;;0.45;88.91;101997.06;6252389;22;20082;-95
2022/02/27 02:10:22;;;;;;;18.15;7.95;;;;;;;0.46;88.93;102010.13;6074081;23;20029;-93
2022/02/27 02:17:06;;;;;;;17.25;7.55;;;;;;;0.58;89.48;102032.94;6220770;23;20071;-94
2022/02/27 02:20:35;;;;;;;20.55;8.95;;;;;;;0.67;89.48;102056.59;6220944;23;20055;-94
2022/02/27 02:23:12;;;;;;;19.83;8.70;;;;;;;0.28;90.23;101987.19;6221610;23;20040;-95
2022/02/27 03:08:49;;;;;;;19.13;8.05;;;;;;;0.44;91.50;102039.63;6232991;22;20066;-94
2022/02/27 03:11:40;;;;;;;22.73;8.40;;;;;;;0.10;91.71;101981.59;6251122;23;20023;-95
2022/02/27 03:14:09;;;;;;;18.05;7.40;;;;;;;0.15;91.49;101998.22;6247238;23;20455;-93
2022/02/27 03:25:01;;;;;;;;;;;;;;;;;;;;;
2022/02/27 03:35:54;;;;;;;;;;;;;;;;;;;;;
2022/02/27 03:39:28;;;;;;;;;;;;;;;;;;;;;
2022/02/27 03:43:09;;;;;;;;;;;;;;;;;;;;;
2022/02/27 03:59:02;;;;;;;16.23;6.60;;;;;;;0.24;91.13;102027.06;5963380;24;20032;-94
2022/02/27 04:02:34;;;;;;;18.02;5.95;;;;;;;0.19;91.13;102026.06;5975358;23;20109;-96
2022/02/27 04:06:07;;;;;;;;;;;;;;;;;;;;;
2022/02/27 04:09:56;;;;;;;;;;;;;;;;;;;;;
2022/02/27 04:13:02;;;;;;;;;;;;;;;;;;;;;
2022/02/27 04:20:17;;;;;;;11.00;6.18;;;;;;;0.11;90.91;102051.09;6083339;23;20081;-94
2022/02/27 04:23:11;;;;;;;;;;;;;;;;;;;;;
2022/02/27 04:26:43;;;;;;;14.60;5.88;;;;;;;-0.29;90.90;101975.50;6219078;23;20045;-94
2022/02/27 04:29:12;;;;;;;;;;;;;;;0.04;91.33;102038.75;6221284;23;20020;-95
2022/02/27 04:32:05;;;;;;;15.30;5.53;;;;;;;-0.36;91.60;101983.22;6225265;23;19977;-95
2022/02/27 04:35:21;;;;;;;;;;;;;;;;;;;;;
2022/02/27 04:38:35;;;;;;;13.70;6.13;;;;;;;-0.17;91.29;102007.06;6193952;23;20095;-94
2022/02/27 04:45:19;;;;;;;;;;;;;;;;;;;;;
2022/02/27 04:52:13;;;;;;;;;;;;;;;;;;;;;
2022/02/27 04:54:54;;;;;;;;;;;;;;;-0.06;91.76;102032.47;6208291;23;20079;-94
2022/02/27 04:58:41;;;;;;;;;;;;;;;;;;;;;
2022/02/27 06:13:35;;;;;;;;;;;;;;;;;;;;;
2022/02/27 06:17:01;;;;;;;15.88;6.53;;;;;;;-0.20;92.43;102091.16;6251809;23;20020;-94
2022/02/27 06:27:32;;;;;;;14.95;6.30;;;;;;;-0.40;92.29;102036.03;6160012;23;20025;-94
2022/02/27 06:35:18;;;;;;;;;;;;;;;;;;;;;
2022/02/27 06:38:40;;;;;;;;;;;;;;;;;;;;;
2022/02/27 06:41:54;;;;;;;15.68;6.30;;;;;;;-0.10;90.25;102050.59;6041511;23;20030;-95
2022/02/27 06:45:05;;;;;;;;;;;;;;;;;;;;;
2022/02/27 06:48:16;;;;;;;13.40;5.82;;;;;;;0.49;89.23;102118.75;6019486;23;20058;-94
2022/02/27 06:51:37;;;;;;;17.58;6.32;;;;;;;0.54;88.10;102109.31;6018434;23;20410;-94
2022/02/27 06:55:19;;;;;;;;;;;;;;;;;;;;;
2022/02/27 07:02:22;;;;;;;;;;;;;;;;;;;;;
2022/02/27 07:09:26;;;;;;;;;;;;;;;;;;;;;
2022/02/27 08:35:31;;;;;;;15.18;6.32;;;;;;;4.18;69.63;102089.09;5633013;22;15098624;-94
2022/02/27 08:38:16;;;;;;;15.05;6.80;;;;;;;4.60;69.05;102154.03;6264793;22;20043;-95
2022/02/27 08:40:51;;;;;;;17.67;6.90;;;;;;;4.51;69.62;102123.38;6291159;22;20013;-93
2022/02/27 08:43:34;;;;;;;13.43;7.07;;;;;;;4.95;67.32;102122.69;6270769;22;20050;-93
2022/02/27 08:46:08;;;;;;;14.70;7.25;;;;;;;5.15;66.44;102113.13;6296155;22;20055;-94
2022/02/27 08:48:43;;;;;;;15.50;6.78;;;;;;;5.64;64.40;102102.72;6294103;22;20026;-94
2022/02/27 08:51:18;;;;;;;15.38;6.50;;;;;;;6.25;62.36;102123.75;6288968;22;20497;-94
2022/02/27 08:53:49;;;;;;;13.82;6.30;;;;;;;6.51;60.46;102084.19;6283992;22;20016;-93
2022/02/27 08:56:32;;;;;;;12.07;5.65;;;;;;;7.27;58.01;102121.56;6258629;22;20020;-93
2022/02/27 08:59:01;;;;;;;12.48;6.05;;;;;;;7.50;57.27;102102.13;6282296;22;20034;-95
2022/02/27 09:01:41;;;;;;;14.38;6.60;;;;;;;8.30;54.69;102146.28;6282091;22;20016;-93
2022/02/27 09:04:16;;;;;;;9.68;5.68;;;;;;;7.99;54.92;102082.38;6283156;22;20016;-93
2022/02/27 09:06:49;;;;;;;13.75;6.05;;;;;;;8.49;55.06;102123.25;6282818;22;20015;-93
2022/02/27 09:09:22;;;;;;;15.02;6.43;;;;;;;8.73;52.30;102108.88;6282408;22;20028;-93
2022/02/27 09:11:52;;;;;;;11.05;5.65;;;;;;;8.87;52.72;102088.44;6262447;22;20437;-93
2022/02/27 09:14:52;;;;;;;10.60;5.38;;;;;;;9.10;50.74;102094.31;6282010;22;20015;-95
2022/02/27 09:20:39;;;;;;;13.88;5.70;;;;;;;9.48;47.87;102090.19;6200712;22;20081;-96
2022/02/27 09:23:20;;;;;;;12.05;5.60;;;;;;;9.79;49.17;102146.13;6187575;22;20013;-93
2022/02/27 09:25:52;;;;;;;12.75;5.47;;;;;;;9.34;49.43;102071.91;6227924;23;20024;-94
2022/02/27 09:28:33;;;;;;;9.52;5.38;;;;;;;9.37;47.84;102074.50;6228633;23;20083;-92
2022/02/27 09:31:04;;;;;;;11.23;5.78;;;;;;;9.10;47.82;102104.88;6228846;22;20436;-93
2022/02/27 09:36:11;;;;;;;12.27;5.80;;;;;;;8.30;50.27;102085.56;6231034;22;20016;-94
2022/02/27 09:38:58;;;;;;;13.73;5.70;;;;;;;8.11;51.91;102070.81;6259696;22;20055;-92
2022/02/27 09:44:09;;;;;;;12.50;6.03;;;;;;;8.55;50.56;102136.34;6255254;22;20047;-95
2022/02/27 09:46:37;;;;;;;13.23;6.13;;;;;;;8.59;49.99;102110.81;6251197;23;20080;-94
2022/02/27 09:52:08;;;;;;;13.63;6.30;;;;;;;9.77;46.95;102074.72;6258740;22;20012;-95
2022/02/27 09:58:32;;;;;;;;;;;;;;;;;;;;;
2022/02/27 10:04:22;;;;;;;9.98;5.13;;;;;;;11.79;41.12;102084.69;6282510;22;20054;-94
2022/02/27 10:07:27;;;;;;;11.20;4.88;;;;;;;12.05;40.61;102106.13;6224129;23;20565;-94
2022/02/27 10:10:05;;;;;;;11.27;5.07;;;;;;;12.30;40.87;102091.28;6219559;23;20021;-95
2022/02/27 10:12:49;;;;;;;10.60;4.40;;;;;;;12.65;39.67;102047.78;6198379;23;20036;-95
2022/02/27 10:20:48;;;;;;;7.72;4.40;;;;;;;14.50;35.53;102108.31;6257405;22;20054;-95
2022/02/27 10:23:36;;;;;;;9.70;4.57;;;;;;;14.57;34.25;102062.72;6209002;23;20031;-96
2022/02/27 10:26:25;;;;;;;9.23;4.50;;;;;;;14.60;34.76;102032.41;6252914;23;20028;-94
2022/02/27 10:29:35;;;;;;;11.10;4.32;;;;;;;15.19;33.02;102031.88;6253077;22;20035;-94
2022/02/27 10:32:27;;;;;;;7.45;4.05;;;;;;;15.64;33.18;102086.09;6204497;23;20502;-94
2022/02/27 10:35:33;;;;;;;6.70;4.18;;;;;;;15.82;32.56;102089.81;6234540;23;20027;-94
2022/02/27 10:38:07;;;;;;;8.23;4.38;;;;;;;14.98;33.10;102031.78;6257173;23;20134;-94
2022/02/27 10:40:48;;;;;;;7.35;4.18;;;;;;;14.98;33.36;102060.28;6254218;23;20038;-94
2022/02/27 10:43:31;;;;;;;10.07;4.30;;;;;;;15.06;33.32;102035.06;6200358;23;20447;-93
2022/02/27 10:46:06;;;;;;;7.72;4.55;;;;;;;14.87;33.08;102042.03;6222730;23;21000;-94
2022/02/27 10:48:41;;;;;;;8.73;4.15;;;;;;;15.04;33.72;102020.91;6220340;23;20044;-95
2022/02/27 10:51:36;;;;;;;8.65;4.40;;;;;;;15.79;31.83;102031.19;6200773;23;20031;-95
2022/02/27 10:54:40;;;;;;;8.45;4.80;;;;;;;15.42;31.99;102016.66;6220537;23;20036;-95
2022/02/27 10:57:57;;;;;;;9.15;4.18;;;;;;;15.11;32.45;102026.84;6229364;23;20016;-95
2022/02/27 11:00:54;;;;;;;6.68;4.05;;;;;;;13.80;33.88;101998.91;6224038;23;20043;-95
2022/02/27 11:03:24;;;;;;;7.88;4.40;;;;;;;13.86;33.91;101994.22;6220740;23;20017;-95
2022/02/27 11:05:54;;;;;;;7.72;3.90;;;;;;;13.40;35.11;102040.16;6219733;23;20100;-95
2022/02/27 11:08:28;;;;;;;5.55;3.88;;;;;;;12.27;36.14;102058.63;6199863;23;20100;-96
2022/02/27 11:11:13;;;;;;;7.35;4.00;;;;;;;11.67;37.32;102007.97;6168633;23;20035;-94
2022/02/27 11:13:54;;;;;;;6.47;3.60;;;;;;;12.62;34.81;102004.47;6104539;23;20025;-95
2022/02/27 11:16:38;;;;;;;5.78;3.42;;;;;;;12.37;35.46;102062.75;6229885;23;20017;-93
2022/02/27 11:19:41;;;;;;;7.97;3.88;;;;;;;11.64;36.84;101990.38;6226175;23;20024;-95
2022/02/27 11:22:25;;;;;;;5.88;3.47;;;;;;;12.72;35.38;102056.44;6230784;23;20448;-96
2022/02/27 11:25:10;;;;;;;7.15;3.53;;;;;;;13.03;34.70;101991.69;6224923;23;20076;-95
2022/02/27 11:28:22;;;;;;;6.07;3.50;;;;;;;13.59;33.83;102024.44;6229551;23;20050;-95
2022/02/27 11:31:06;;;;;;;5.47;3.00;;;;;;;13.86;33.24;102004.88;6226546;23;20028;-94
2022/02/27 11:33:48;;;;;;;7.55;3.85;;;;;;;13.52;33.19;101988.34;6230073;23;20055;-96
2022/02/27 11:36:24;;;;;;;8.43;3.90;;;;;;;12.63;34.96;101984.94;6202604;23;20044;-96
2022/02/27 11:43:04;;;;;;;6.22;3.40;;;;;;;12.61;34.36;101986.78;6227626;22;20070;-95
2022/02/27 11:45:51;;;;;;;8.60;3.72;;;;;;;12.23;34.71;102028.63;6183023;23;20486;-95
2022/02/27 11:51:53;;;;;;;6.70;3.53;;;;;;;11.08;36.62;102026.25;6207004;22;20031;-94
2022/02/27 11:57:36;;;;;;;4.80;3.25;;;;;;;10.39;37.86;102013.63;6214403;22;20040;-94
2022/02/27 12:00:19;;;;;;;6.68;3.08;;;;;;;10.23;38.09;101994.50;6200083;23;20035;-94
2022/02/27 12:03:31;;;;;;;5.15;3.10;;;;;;;10.18;38.36;102013.16;6206881;22;20097;-95
2022/02/27 12:06:58;;;;;;;6.50;3.42;;;;;;;10.00;39.02;102009.94;6203265;22;20009;-95
2022/02/27 12:09:50;;;;;;;7.50;3.40;;;;;;;9.85;39.64;102011.13;6207171;22;20033;-96
2022/02/27 12:12:43;;;;;;;6.15;3.30;;;;;;;9.88;39.26;102010.19;6204506;22;20048;-95
2022/02/27 12:15:34;;;;;;;7.70;3.20;;;;;;;9.46;39.28;101994.16;6133168;23;20049;-95
2022/02/27 12:18:11;;;;;;;8.13;3.47;;;;;;;9.43;40.07;102003.03;6131230;23;20020;-95
2022/02/27 12:20:45;;;;;;;6.57;3.10;;;;;;;9.74;38.74;102005.16;6133177;23;20037;-95
2022/02/27 12:23:43;;;;;;;6.15;3.25;;;;;;;10.02;38.86;102008.16;6139077;23;20120;-95
2022/02/27 12:26:36;;;;;;;8.32;3.70;;;;;;;10.39;38.10;102000.41;6134709;23;20018;-95
2022/02/27 12:29:27;;;;;;;6.63;3.28;;;;;;;10.25;37.29;101960.06;6136347;23;20064;-96
2022/02/27 12:32:12;;;;;;;6.85;2.92;;;;;;;9.67;38.85;101945.31;6144641;23;20070;-94
2022/02/27 12:38:00;;;;;;;5.00;3.40;;;;;;;10.04;38.28;101969.31;6229517;23;20021;-94
2022/02/27 12:40:29;;;;;;;6.32;3.33;;;;;;;10.14;37.59;101926.72;6163301;23;20036;-95
2022/02/27 12:43:15;;;;;;;5.18;3.30;;;;;;;11.01;37.46;101953.09;6202453;23;20019;-94
2022/02/27 12:45:52;;;;;;;4.55;2.90;;;;;;;12.86;33.49;101986.91;6226365;23;20666;-94
2022/02/27 12:52:00;;;;;;;4.60;2.70;;;;;;;15.49;28.77;101979.03;6229810;22;20025;-93
2022/02/27 12:54:45;;;;;;;5.28;3.15;;;;;;;15.75;27.46;101915.59;6229488;23;20021;-95
2022/02/27 12:57:27;;;;;;;6.22;3.00;;;;;;;14.82;28.37;101910.66;6207932;23;20067;-96
2022/02/27 13:00:10;;;;;;;4.93;3.28;;;;;;;15.24;28.95;101916.03;6229147;23;20064;-95
2022/02/27 13:02:48;;;;;;;4.80;2.90;;;;;;;16.64;26.51;101938.28;6229508;23;20099;-94
2022/02/27 13:05:22;;;;;;;5.03;3.35;;;;;;;16.99;25.88;101957.97;6210134;23;20020;-94
2022/02/27 13:08:10;;;;;;;5.10;2.90;;;;;;;17.29;25.13;101963.63;6231373;23;20016;-94
2022/02/27 13:10:54;;;;;;;5.68;3.50;;;;;;;17.02;25.66;101945.28;6186453;23;20021;-95
2022/02/27 13:13:41;;;;;;;7.13;3.10;;;;;;;17.64;24.12;101921.66;6231965;23;20030;-94
2022/02/27 13:16:11;;;;;;;7.20;2.97;;;;;;;18.52;23.64;101917.72;6235376;23;20073;-93
2022/02/27 13:18:51;;;;;;;5.60;2.88;;;;;;;19.38;22.86;101937.81;6233401;23;20024;-94
2022/02/27 13:21:23;;;;;;;6.25;2.95;;;;;;;19.72;21.93;101893.69;6208415;23;20016;-94
2022/02/27 13:24:08;;;;;;;4.55;2.65;;;;;;;20.19;20.98;101897.91;6201950;23;20152;-95
2022/02/27 13:26:51;;;;;;;5.20;3.03;;;;;;;19.64;21.34;101885.25;6220872;23;20068;-94
2022/02/27 13:29:21;;;;;;;4.60;2.60;;;;;;;20.02;21.69;101916.94;6221429;23;20017;-93
2022/02/27 13:32:04;;;;;;;5.32;2.78;;;;;;;20.81;20.62;101923.50;6197358;23;20016;-94
2022/02/27 13:34:39;;;;;;;5.60;3.03;;;;;;;20.49;20.96;101890.59;6224839;23;20051;-91
2022/02/27 13:37:13;;;;;;;5.40;2.85;;;;;;;20.54;21.15;101941.44;6227474;23;20026;-93
2022/02/27 13:39:41;;;;;;;4.40;2.88;;;;;;;19.70;22.53;101929.69;6222739;23;20252;-92
2022/02/27 13:42:20;;;;;;;4.75;2.80;;;;;;;20.26;21.20;101910.03;6223421;23;20251;-92
2022/02/27 13:45:08;;;;;;;4.18;2.58;;;;;;;20.10;20.55;101880.56;6221295;23;20024;-93
2022/02/27 13:47:36;;;;;;;5.70;2.88;;;;;;;19.83;21.03;101890.38;6228006;23;20039;-93
2022/02/27 13:50:22;;;;;;;5.40;2.60;;;;;;;19.29;21.99;101927.63;6229691;23;20043;-93
2022/02/27 13:53:14;;;;;;;4.93;2.53;;;;;;;18.77;22.56;101873.41;6221131;23;20055;-92
2022/02/27 13:55:47;;;;;;;5.63;2.63;;;;;;;17.58;23.27;101858.53;6220832;23;20024;-93
2022/02/27 13:58:26;;;;;;;7.18;3.20;;;;;;;15.23;26.04;101863.59;6196544;23;20024;-93
2022/02/27 14:01:01;;;;;;;4.13;2.97;;;;;;;14.11;28.71;101908.09;6194456;23;20023;-93
2022/02/27 14:03:41;;;;;;;4.28;2.95;;;;;;;14.17;27.90;101882.09;6196636;23;20046;-93
2022/02/27 14:06:27;;;;;;;5.32;2.83;;;;;;;15.12;27.82;101892.50;6222535;23;20083;-93
2022/02/27 14:09:07;;;;;;;4.13;2.85;;;;;;;16.44;25.56;101917.78;6221343;23;20089;-93
2022/02/27 14:12:33;;;;;;;;;;;;;;;;;;;;;
2022/02/27 14:50:43;;;;;;;;;;;;;;;;;;;;;
2022/02/27 14:57:52;;;;;;;6.45;2.85;;;;;;;10.96;34.19;101846.28;6037029;23;20027;-95
2022/02/27 15:01:28;;;;;;;;;;;;;;;;;;;;;
2022/02/27 15:08:01;;;;;;;3.60;2.60;;;;;;;10.17;34.81;101865.78;5936540;24;20110;-95
2022/02/27 15:11:34;;;;;;;4.90;2.67;;;;;;;9.87;35.62;101836.47;5943669;24;20072;-94
2022/02/27 15:15:26;;;;;;;4.47;2.05;;;;;;;9.90;35.27;101855.78;5984628;23;20042;-95
2022/02/27 15:23:06;;;;;;;;;;;;;;;;;;;;;
2022/02/27 15:25:57;;;;;;;4.65;2.70;;;;;;;9.76;36.15;101871.06;6056784;23;20105;-95
2022/02/27 15:28:24;;;;;;;7.68;2.83;;;;;;;9.61;36.42;101853.72;6137915;23;20021;-93
2022/02/27 15:31:00;;;;;;;4.35;2.20;;;;;;;9.50;36.56;101853.94;6214729;23;20621;-94
2022/02/27 15:33:30;;;;;;;3.53;2.25;;;;;;;9.27;36.81;101827.06;6217421;23;20074;-94
2022/02/27 15:35:57;;;;;;;5.75;2.30;;;;;;;9.28;37.02;101838.53;6212977;23;20360;-95
2022/02/27 15:38:27;;;;;;;3.60;2.20;;;;;;;9.31;36.74;101844.59;6212221;23;20063;-96
2022/02/27 15:40:56;;;;;;;4.53;2.30;;;;;;;9.33;37.08;101861.31;6215454;23;20070;-96
2022/02/27 15:43:26;;;;;;;3.80;2.33;;;;;;;9.28;36.83;101863.19;6214966;23;20252;-96
2022/02/27 15:46:02;;;;;;;5.88;2.47;;;;;;;8.95;37.30;101811.81;6191235;23;20723;-96
2022/02/27 15:48:39;;;;;;;5.57;2.15;;;;;;;9.09;37.19;101859.13;6216621;23;20123;-96
2022/02/27 15:51:31;;;;;;;4.13;2.28;;;;;;;8.89;37.76;101827.75;6217269;23;20016;-95
2022/02/27 15:54:28;;;;;;;;;;;;;;;;;;;;;
2022/02/27 15:57:17;;;;;;;2.40;2.00;;;;;;;8.83;37.61;101846.34;6221449;23;20043;-93
2022/02/27 15:59:45;;;;;;;5.05;2.53;;;;;;;8.63;38.17;101817.63;6191150;23;20062;-94
2022/02/27 16:02:42;;;;;;;3.53;2.00;;;;;;;8.73;37.80;101848.28;6222571;23;20047;-94
2022/02/27 16:05:19;;;;;;;5.90;2.50;;;;;;;8.56;38.40;101813.34;6231991;23;20019;-95
2022/02/27 16:07:51;;;;;;;3.67;2.42;;;;;;;8.68;38.53;101846.59;6229255;23;20016;-94
2022/02/27 16:10:21;;;;;;;6.35;2.45;;;;;;;8.61;38.57;101855.53;6235642;23;20039;-95
2022/02/27 16:12:51;;;;;;;20.25;10.18;;;;;;;8.47;38.71;101849.59;6237700;23;20016;-94
2022/02/27 16:15:20;;;;;;;5.60;3.55;;;;;;;8.44;38.57;101843.44;6229772;23;20022;-95
2022/02/27 16:17:51;;;;;;;5.63;2.65;;;;;;;8.27;38.11;101823.44;6230362;23;20459;-93
2022/02/27 16:20:24;;;;;;;3.97;2.53;;;;;;;8.46;38.66;101867.19;6230435;23;20032;-95
2022/02/27 16:23:08;;;;;;;5.55;2.28;;;;;;;8.14;39.56;101850.91;6214070;23;20043;-94
2022/02/27 16:25:50;;;;;;;7.60;3.35;;;;;;;7.98;39.21;101824.72;6234439;23;20364;-93
2022/02/27 16:28:37;;;;;;;8.80;3.65;;;;;;;8.12;39.54;101855.34;6235052;22;20021;-95
2022/02/27 16:31:26;;;;;;;4.35;2.65;;;;;;;7.85;39.95;101836.34;6226596;23;20495;-94
2022/02/27 16:33:59;;;;;;;7.38;3.28;;;;;;;7.91;40.15;101860.00;6203521;23;20095;-94
2022/02/27 16:36:27;;;;;;;7.20;2.88;;;;;;;7.89;40.31;101885.50;6225232;23;20025;-93
2022/02/27 16:39:35;;;;;;;4.65;3.10;;;;;;;7.78;40.85;101871.59;6204661;23;20021;-95
2022/02/27 16:42:13;;;;;;;6.65;3.20;;;;;;;7.67;41.00;101873.47;6226878;23;20043;-95
2022/02/27 16:45:09;;;;;;;3.92;2.58;;;;;;;7.62;41.26;101870.88;6229955;23;20079;-95
2022/02/27 16:47:43;;;;;;;3.63;2.70;;;;;;;7.67;40.96;101894.56;6205386;23;20140;-93
2022/02/27 16:50:23;;;;;;;4.65;2.70;;;;;;;7.48;41.23;101890.38;6221422;23;20040;-93
2022/02/27 16:52:54;;;;;;;4.57;2.40;;;;;;;7.18;41.25;101858.19;6196518;23;20512;-96
2022/02/27 16:55:24;;;;;;;7.03;2.65;;;;;;;7.55;40.93;101910.53;6200410;23;20384;-95
2022/02/27 16:58:19;;;;;;;6.90;2.55;;;;;;;7.19;41.86;101861.69;6171515;23;20055;-95
2022/02/27 17:00:55;;;;;;;4.53;2.40;;;;;;;7.27;41.93;101894.97;6224623;23;20017;-96
2022/02/27 17:03:26;;;;;;;4.70;2.72;;;;;;;7.08;42.37;101882.88;6194468;23;20067;-95
2022/02/27 17:05:56;;;;;;;4.78;2.30;;;;;;;7.30;42.95;101925.69;6231714;23;20024;-95
2022/02/27 17:08:27;;;;;;;5.80;2.70;;;;;;;7.30;42.45;101931.84;6226789;23;20025;-95
2022/02/27 17:11:11;;;;;;;6.03;2.55;;;;;;;7.26;42.63;101937.13;6232817;23;20056;-95
2022/02/27 17:13:40;;;;;;;5.22;2.55;;;;;;;6.94;43.07;101908.44;6219091;23;20012;-95
2022/02/27 17:16:16;;;;;;;4.88;2.63;;;;;;;6.70;43.49;101888.44;6215481;23;20021;-96
2022/02/27 17:18:43;;;;;;;5.25;3.05;;;;;;;6.87;43.54;101925.19;6213755;23;20027;-94
2022/02/27 17:21:12;;;;;;;3.38;2.53;;;;;;;6.71;43.84;101908.63;6219348;23;20100;-96
2022/02/27 17:23:44;;;;;;;3.85;2.55;;;;;;;6.73;43.78;101909.50;6198971;23;20016;-95
2022/02/27 17:26:17;;;;;;;5.10;2.80;;;;;;;6.45;44.56;101886.88;6168629;23;20012;-94
2022/02/27 17:28:51;;;;;;;7.82;3.28;;;;;;;6.37;44.41;101886.03;6211002;23;20024;-96
2022/02/27 17:31:21;;;;;;;5.85;2.67;;;;;;;6.66;44.99;101945.50;6216711;23;20021;-94
2022/02/27 17:33:54;;;;;;;6.13;2.83;;;;;;;6.61;45.16;101928.84;6216674;23;20024;-94
2022/02/27 17:36:28;;;;;;;5.25;2.83;;;;;;;6.48;45.17;101921.91;6191588;23;20025;-94
2022/02/27 17:39:05;;;;;;;6.28;3.17;;;;;;;6.40;45.31;101931.63;6192975;23;20334;-95
2022/02/27 17:42:24;;;;;;;3.72;2.47;;;;;;;6.17;45.90;101900.16;6221080;23;20032;-95
2022/02/27 17:45:02;;;;;;;5.53;3.30;;;;;;;6.34;46.10;101936.91;6211775;23;20028;-95
2022/02/27 17:47:29;;;;;;;4.03;2.75;;;;;;;6.45;46.07;101964.06;6213060;23;20020;-95
2022/02/27 17:50:15;;;;;;;6.57;3.13;;;;;;;6.09;46.00;101899.34;6214645;23;20089;-96
2022/02/27 17:52:45;;;;;;;5.22;2.83;;;;;;;6.32;46.29;101943.94;6214969;23;20467;-93
2022/02/27 17:55:18;;;;;;;5.35;2.92;;;;;;;6.19;46.20;101921.19;6216090;23;20035;-96
2022/02/27 17:57:53;;;;;;;5.68;3.25;;;;;;;6.37;46.01;101941.28;6213546;23;20123;-92
2022/02/27 18:00:22;;;;;;;6.22;3.20;;;;;;;6.27;46.24;101929.94;6217662;23;20036;-94
2022/02/27 18:03:12;;;;;;;6.35;3.42;;;;;;;6.13;46.68;101932.63;6204083;23;20032;-95
2022/02/27 18:19:15;;;;;;;8.93;3.40;;;;;;;5.64;47.82;101913.50;6242815;22;20043;-93
2022/02/27 18:22:07;;;;;;;5.70;3.42;;;;;;;5.89;47.59;101940.59;6253598;23;20020;-94
2022/02/27 18:24:45;;;;;;;8.18;3.63;;;;;;;5.99;48.03;101972.09;6256961;22;20020;-93
2022/02/27 18:27:45;;;;;;;7.20;3.70;;;;;;;5.64;47.82;101926.63;6162721;23;20021;-93
2022/02/27 18:30:37;;;;;;;7.03;3.30;;;;;;;5.89;47.85;101975.66;6135557;23;20433;-93
2022/02/27 18:33:18;;;;;;;6.90;3.67;;;;;;;5.62;48.68;101952.03;6165805;23;20041;-95
2022/02/27 18:35:47;;;;;;;8.75;3.80;;;;;;;5.41;48.61;101920.53;6161551;23;20104;-96
2022/02/27 18:38:35;;;;;;;;;;;;;;;5.73;48.72;101975.66;6162301;23;20022;-96
2022/02/27 18:41:30;;;;;;;8.23;3.83;;;;;;;5.50;49.11;101938.94;6166264;23;19924;-93
2022/02/27 18:44:43;;;;;;;8.10;3.95;;;;;;;5.55;48.78;101952.91;6053452;23;20030;-96
2022/02/27 18:47:44;;;;;;;6.18;3.38;;;;;;;5.68;48.72;101988.78;6048081;23;20065;-95
2022/02/27 19:26:06;;;;;;;9.45;5.05;;;;;;;4.71;53.13;101980.91;6216410;22;20020;-94
2022/02/27 19:28:48;;;;;;;9.70;5.45;;;;;;;4.43;53.28;101951.06;6253925;23;20024;-94
2022/02/27 19:31:30;;;;;;;10.30;5.47;;;;;;;4.32;53.30;101945.81;6253733;23;20032;-93
2022/02/27 19:34:21;;;;;;;9.75;5.13;;;;;;;4.24;54.10;101918.69;6231930;23;20274;-94
2022/02/27 19:37:03;;;;;;;8.55;5.22;;;;;;;4.14;53.40;101911.66;6228182;23;20091;-94
2022/02/27 19:39:41;;;;;;;10.05;5.75;;;;;;;4.20;53.52;101938.78;6252571;23;20027;-92
2022/02/27 19:42:22;;;;;;;8.43;5.07;;;;;;;3.97;54.13;101914.19;6252786;23;20020;-94
2022/02/27 19:45:46;;;;;;;9.43;5.03;;;;;;;4.12;54.65;101945.72;6229939;23;20812;-94
2022/02/27 19:48:39;;;;;;;8.68;5.10;;;;;;;4.25;54.27;101982.50;6251798;23;20043;-93
2022/02/27 19:51:29;;;;;;;9.18;6.05;;;;;;;4.00;54.70;101947.41;6251548;23;20051;-93
2022/02/27 19:54:06;;;;;;;11.48;7.53;;;;;;;4.08;55.23;101966.69;6254817;23;20079;-94
2022/02/27 19:56:34;;;;;;;13.82;7.00;;;;;;;3.87;55.76;101946.50;6256962;23;20004;-93
2022/02/27 19:59:18;;;;;;;11.73;6.65;;;;;;;3.63;56.49;101923.63;6258956;23;20016;-94
2022/02/27 20:02:04;;;;;;;14.70;7.85;;;;;;;3.80;57.07;101963.91;6236569;23;20027;-93
2022/02/27 20:05:00;;;;;;;15.68;9.15;;;;;;;3.65;57.28;101953.34;6231795;23;20103;-94
2022/02/27 20:07:42;;;;;;;11.48;8.02;;;;;;;3.39;58.14;101920.88;6258186;23;20031;-93
2022/02/27 20:13:36;;;;;;;9.10;6.53;;;;;;;3.47;58.83;101951.47;6192190;23;20075;-93
2022/02/27 20:16:05;;;;;;;10.63;6.82;;;;;;;3.19;59.07;101907.63;6244364;23;20101;-93
2022/02/27 20:18:34;;;;;;;12.77;6.90;;;;;;;3.29;59.46;101933.03;6252828;23;20026;-93
2022/02/27 20:21:21;;;;;;;13.27;7.30;;;;;;;3.41;60.30;101955.81;6254535;23;20024;-94
2022/02/27 20:24:33;;;;;;;11.82;6.85;;;;;;;3.48;60.39;101987.28;6164310;23;20076;-96
2022/02/27 20:27:22;;;;;;;14.30;7.13;;;;;;;3.42;60.68;101989.88;6161360;23;20030;-93
2022/02/27 20:29:59;;;;;;;13.25;6.38;;;;;;;3.36;61.35;101976.72;6162836;23;20021;-92